Tuesday, September 25, 2018, 6:56 PM EDT
Back to Local

KHUL, Houlton Int'l Airport

Location: Houlton, ME, United States Lat: 46.117
Local Time: 6:56 PM EDT (22:56 GMT) Lon: -67.8
Time Zone: US/Eastern Elev: 492 ft

Show me the last for .
Show Decoded

2018-09-25 18:29 METAR KHUL 252229Z AUTO 18007KT 10SM -RA BKN028 BKN037 OVC110 12/09 A3036 RMK
                 AO2 RAB2157 P0000 T01170094 $ =
2018-09-25 18:22 METAR KHUL 252222Z AUTO VRB06KT 10SM -RA SCT028 BKN037 OVC110 12/09 A3037 RMK
                 AO2 RAB2157 P0000 T01170094 $ =
2018-09-25 17:53 METAR KHUL 252153Z AUTO VRB05KT 10SM OVC028 12/09 A3038 RMK AO2 RAB37E50 SLP292
                 P0000 T01170089 $ =
2018-09-25 17:28 METAR KHUL 252128Z AUTO 18008G17KT 10SM OVC028 12/08 A3039 RMK AO2 T01220083 $ =
2018-09-25 16:53 METAR KHUL 252053Z AUTO 19012G17KT 10SM BKN035 13/08 A3041 RMK AO2 SLP302
                 T01330078 58029 $ =
2018-09-25 15:53 METAR KHUL 251953Z AUTO 20009G22KT 10SM BKN036 13/07 A3044 RMK AO2 SLP315
                 T01330072 $ =
2018-09-25 14:53 METAR KHUL 251853Z AUTO 19012G19KT 150V230 10SM FEW038 14/06 A3047 RMK AO2
                 SLP322 T01390061 $ =
2018-09-25 13:53 METAR KHUL 251753Z AUTO 19012G18KT 10SM CLR 14/04 A3049 RMK AO2 SLP330 T01390044
                 10144 20022 56028 $ =
2018-09-25 12:53 METAR KHUL 251653Z AUTO 19014G23KT 10SM CLR 13/04 A3052 RMK AO2 SLP340 T01330044
                 $ =
2018-09-25 11:53 METAR KHUL 251553Z AUTO 20007G17KT 10SM CLR 12/04 A3055 RMK AO2 SLP349 T01220044
                 =
2018-09-25 10:53 METAR KHUL 251453Z AUTO 18010G19KT 10SM CLR 12/02 A3058 RMK AO2 SLP360 T01220017
                 58013 =
2018-09-25 09:53 METAR KHUL 251353Z AUTO 16008G18KT 10SM CLR 10/02 A3060 RMK AO2 SLP367 T01000017
                 =
2018-09-25 08:53 METAR KHUL 251253Z AUTO 17004KT 10SM CLR 07/02 A3062 RMK AO2 SLP374 T00720017 =
2018-09-25 07:53 METAR KHUL 251153Z AUTO 00000KT 10SM CLR 02/01 A3061 RMK AO2 SLP374 I6000
                 T00170006 10017 21033 58003 =
2018-09-25 06:53 METAR KHUL 251053Z AUTO 18003KT 10SM CLR M02/M03 A3062 RMK AO2 SLP377 T10171028
                 =
2018-09-25 05:53 METAR KHUL 250953Z AUTO 00000KT 10SM CLR M03/M03 A3062 RMK AO2 SLP376 T10281033
                 =
2018-09-25 04:53 METAR KHUL 250853Z AUTO 23003KT 10SM CLR M02/M02 A3062 RMK AO2 SLP376 I1000
                 I3000 T10221022 58006 =
2018-09-25 03:53 METAR KHUL 250753Z AUTO 00000KT 10SM CLR M02/M02 A3064 RMK AO2 SLP380 T10171022
                 =
2018-09-25 02:53 METAR KHUL 250653Z AUTO 22004KT 10SM CLR M02/M02 A3063 RMK AO2 SLP379 T10221022
                 =
2018-09-25 01:53 METAR KHUL 250553Z AUTO 00000KT 10SM CLR M01/M02 A3064 RMK AO2 SLP381 T10111017
                 10006 21022 56006 =
2018-09-25 00:53 METAR KHUL 250453Z AUTO 00000KT 10SM BKN110 00/00 A3064 RMK AO2 SLP382 T00000000
                 401281050 =
2018-09-24 23:53 METAR KHUL 250353Z AUTO 00000KT 10SM CLR 00/M01 A3065 RMK AO2 SLP385 T00001006 =
2018-09-24 22:53 METAR KHUL 250253Z AUTO 00000KT 10SM CLR M01/M02 A3066 RMK AO2 SLP389 T10111017
                 53004 =
2018-09-24 21:53 METAR KHUL 250153Z AUTO 00000KT 10SM CLR M01/M02 A3065 RMK AO2 SLP385 T10111017
                 =
2018-09-24 20:53 METAR KHUL 250053Z AUTO 00000KT 10SM CLR M01/M01 A3064 RMK AO2 SLP381 T10061011
                 =
2018-09-24 19:53 METAR KHUL 242353Z AUTO 00000KT 10SM CLR 01/00 A3065 RMK AO2 SLP386 T00060000
                 10128 20006 52026 =

Support USWX by starting your Amazon purchase here.